sensor_id;sensor_type;location;lat;lon;timestamp;P1;durP1;ratioP1;P2;durP2;ratioP2
36315;SDS011;22343;50.820;2.666;2022-08-23T00:01:43;5.13;;;3.90;;
36315;SDS011;22343;50.820;2.666;2022-08-23T00:04:12;4.82;;;3.92;;
36315;SDS011;22343;50.820;2.666;2022-08-23T00:06:41;6.15;;;3.95;;
36315;SDS011;22343;50.820;2.666;2022-08-23T00:09:07;6.65;;;3.83;;
36315;SDS011;22343;50.820;2.666;2022-08-23T00:16:36;6.20;;;3.70;;
36315;SDS011;22343;50.820;2.666;2022-08-23T00:19:03;4.43;;;3.55;;
36315;SDS011;22343;50.820;2.666;2022-08-23T00:21:29;7.30;;;3.95;;
36315;SDS011;22343;50.820;2.666;2022-08-23T00:23:55;4.32;;;3.40;;
36315;SDS011;22343;50.820;2.666;2022-08-23T00:26:22;4.93;;;3.55;;
36315;SDS011;22343;50.820;2.666;2022-08-23T00:28:48;5.72;;;3.65;;
36315;SDS011;22343;50.820;2.666;2022-08-23T00:31:15;4.80;;;3.90;;
36315;SDS011;22343;50.820;2.666;2022-08-23T00:33:42;4.25;;;3.67;;
36315;SDS011;22343;50.820;2.666;2022-08-23T00:36:08;6.53;;;3.75;;
36315;SDS011;22343;50.820;2.666;2022-08-23T00:38:34;7.78;;;3.75;;
36315;SDS011;22343;50.820;2.666;2022-08-23T00:41:01;4.93;;;3.70;;
36315;SDS011;22343;50.820;2.666;2022-08-23T00:43:29;5.78;;;4.03;;
36315;SDS011;22343;50.820;2.666;2022-08-23T00:49:26;5.95;;;4.00;;
36315;SDS011;22343;50.820;2.666;2022-08-23T00:54:38;5.97;;;4.25;;
36315;SDS011;22343;50.820;2.666;2022-08-23T00:57:07;6.07;;;3.97;;
36315;SDS011;22343;50.820;2.666;2022-08-23T00:59:37;7.57;;;4.22;;
36315;SDS011;22343;50.820;2.666;2022-08-23T01:02:04;5.18;;;4.00;;
36315;SDS011;22343;50.820;2.666;2022-08-23T01:04:32;5.45;;;4.13;;
36315;SDS011;22343;50.820;2.666;2022-08-23T01:07:03;5.18;;;3.92;;
36315;SDS011;22343;50.820;2.666;2022-08-23T01:09:32;5.45;;;4.25;;
36315;SDS011;22343;50.820;2.666;2022-08-23T01:12:07;7.38;;;4.00;;
36315;SDS011;22343;50.820;2.666;2022-08-23T01:14:41;6.25;;;3.92;;
36315;SDS011;22343;50.820;2.666;2022-08-23T01:17:21;5.15;;;4.20;;
36315;SDS011;22343;50.820;2.666;2022-08-23T01:19:54;5.95;;;3.97;;
36315;SDS011;22343;50.820;2.666;2022-08-23T01:22:27;5.47;;;4.18;;
36315;SDS011;22343;50.820;2.666;2022-08-23T01:24:58;4.78;;;4.10;;
36315;SDS011;22343;50.820;2.666;2022-08-23T01:27:25;5.68;;;4.05;;
36315;SDS011;22343;50.820;2.666;2022-08-23T01:29:52;5.03;;;4.03;;
36315;SDS011;22343;50.820;2.666;2022-08-23T01:32:18;5.10;;;4.30;;
36315;SDS011;22343;50.820;2.666;2022-08-23T01:34:45;4.72;;;4.20;;
36315;SDS011;22343;50.820;2.666;2022-08-23T01:37:11;6.07;;;3.75;;
36315;SDS011;22343;50.820;2.666;2022-08-23T01:39:37;5.07;;;4.03;;
36315;SDS011;22343;50.820;2.666;2022-08-23T01:42:03;6.70;;;4.68;;
36315;SDS011;22343;50.820;2.666;2022-08-23T01:44:30;6.88;;;4.22;;
36315;SDS011;22343;50.820;2.666;2022-08-23T01:46:56;4.75;;;4.25;;
36315;SDS011;22343;50.820;2.666;2022-08-23T01:49:23;7.18;;;4.00;;
36315;SDS011;22343;50.820;2.666;2022-08-23T01:51:49;7.20;;;4.57;;
36315;SDS011;22343;50.820;2.666;2022-08-23T01:54:15;5.80;;;4.22;;
36315;SDS011;22343;50.820;2.666;2022-08-23T01:56:42;6.50;;;4.70;;
36315;SDS011;22343;50.820;2.666;2022-08-23T01:59:09;7.45;;;4.63;;
36315;SDS011;22343;50.820;2.666;2022-08-23T02:01:35;8.52;;;4.80;;
36315;SDS011;22343;50.820;2.666;2022-08-23T02:04:03;6.43;;;4.85;;
36315;SDS011;22343;50.820;2.666;2022-08-23T02:06:29;7.07;;;4.68;;
36315;SDS011;22343;50.820;2.666;2022-08-23T02:08:55;5.57;;;4.60;;
36315;SDS011;22343;50.820;2.666;2022-08-23T02:11:29;8.05;;;4.78;;
36315;SDS011;22343;50.820;2.666;2022-08-23T02:14:01;6.68;;;5.30;;
36315;SDS011;22343;50.820;2.666;2022-08-23T02:16:33;8.25;;;5.20;;
36315;SDS011;22343;50.820;2.666;2022-08-23T02:19:03;9.02;;;5.30;;
36315;SDS011;22343;50.820;2.666;2022-08-23T02:21:30;8.55;;;5.20;;
36315;SDS011;22343;50.820;2.666;2022-08-23T02:23:57;6.53;;;5.30;;
36315;SDS011;22343;50.820;2.666;2022-08-23T02:26:24;6.82;;;5.13;;
36315;SDS011;22343;50.820;2.666;2022-08-23T02:28:51;6.95;;;5.25;;
36315;SDS011;22343;50.820;2.666;2022-08-23T02:31:17;8.32;;;5.10;;
36315;SDS011;22343;50.820;2.666;2022-08-23T02:33:44;8.85;;;5.45;;
36315;SDS011;22343;50.820;2.666;2022-08-23T02:36:10;6.75;;;5.00;;
36315;SDS011;22343;50.820;2.666;2022-08-23T02:38:38;7.05;;;5.20;;
36315;SDS011;22343;50.820;2.666;2022-08-23T02:41:04;6.93;;;4.93;;
36315;SDS011;22343;50.820;2.666;2022-08-23T02:43:30;6.45;;;4.80;;
36315;SDS011;22343;50.820;2.666;2022-08-23T02:45:56;7.15;;;4.88;;
36315;SDS011;22343;50.820;2.666;2022-08-23T02:48:22;10.50;;;5.20;;
36315;SDS011;22343;50.820;2.666;2022-08-23T02:50:48;7.72;;;4.95;;
36315;SDS011;22343;50.820;2.666;2022-08-23T02:53:15;5.97;;;5.05;;
36315;SDS011;22343;50.820;2.666;2022-08-23T02:55:47;7.95;;;5.15;;
36315;SDS011;22343;50.820;2.666;2022-08-23T02:58:13;5.70;;;5.10;;
36315;SDS011;22343;50.820;2.666;2022-08-23T03:00:40;6.70;;;5.30;;
36315;SDS011;22343;50.820;2.666;2022-08-23T03:03:06;8.25;;;5.15;;
36315;SDS011;22343;50.820;2.666;2022-08-23T03:05:32;6.88;;;5.40;;
36315;SDS011;22343;50.820;2.666;2022-08-23T03:07:58;7.32;;;5.53;;
36315;SDS011;22343;50.820;2.666;2022-08-23T03:10:24;7.10;;;5.18;;
36315;SDS011;22343;50.820;2.666;2022-08-23T03:12:50;5.78;;;4.90;;
36315;SDS011;22343;50.820;2.666;2022-08-23T03:15:16;6.15;;;4.78;;
36315;SDS011;22343;50.820;2.666;2022-08-23T03:17:42;6.90;;;5.20;;
36315;SDS011;22343;50.820;2.666;2022-08-23T03:20:08;9.43;;;5.00;;
36315;SDS011;22343;50.820;2.666;2022-08-23T03:22:35;6.80;;;4.80;;
36315;SDS011;22343;50.820;2.666;2022-08-23T03:25:03;5.20;;;4.70;;
36315;SDS011;22343;50.820;2.666;2022-08-23T03:27:30;8.98;;;5.00;;
36315;SDS011;22343;50.820;2.666;2022-08-23T03:29:56;6.00;;;4.93;;
36315;SDS011;22343;50.820;2.666;2022-08-23T03:32:22;8.45;;;5.07;;
36315;SDS011;22343;50.820;2.666;2022-08-23T03:34:48;6.20;;;4.80;;
36315;SDS011;22343;50.820;2.666;2022-08-23T03:37:14;7.30;;;4.97;;
36315;SDS011;22343;50.820;2.666;2022-08-23T03:39:41;7.03;;;4.70;;
36315;SDS011;22343;50.820;2.666;2022-08-23T03:42:07;5.50;;;4.80;;
36315;SDS011;22343;50.820;2.666;2022-08-23T03:44:33;6.32;;;4.50;;
36315;SDS011;22343;50.820;2.666;2022-08-23T03:46:59;5.28;;;4.78;;
36315;SDS011;22343;50.820;2.666;2022-08-23T03:49:25;4.90;;;4.30;;
36315;SDS011;22343;50.820;2.666;2022-08-23T03:51:52;6.20;;;4.30;;
36315;SDS011;22343;50.820;2.666;2022-08-23T03:54:18;9.65;;;4.28;;
36315;SDS011;22343;50.820;2.666;2022-08-23T03:59:21;4.38;;;3.95;;
36315;SDS011;22343;50.820;2.666;2022-08-23T04:01:47;5.30;;;4.05;;
36315;SDS011;22343;50.820;2.666;2022-08-23T04:04:13;5.55;;;4.35;;
36315;SDS011;22343;50.820;2.666;2022-08-23T04:06:39;6.18;;;4.30;;
36315;SDS011;22343;50.820;2.666;2022-08-23T04:09:06;4.60;;;3.58;;
36315;SDS011;22343;50.820;2.666;2022-08-23T04:11:32;5.22;;;3.50;;
36315;SDS011;22343;50.820;2.666;2022-08-23T04:13:58;4.68;;;3.80;;
36315;SDS011;22343;50.820;2.666;2022-08-23T04:16:24;4.90;;;3.90;;
36315;SDS011;22343;50.820;2.666;2022-08-23T04:18:50;6.38;;;4.00;;
36315;SDS011;22343;50.820;2.666;2022-08-23T04:21:18;4.65;;;3.90;;
36315;SDS011;22343;50.820;2.666;2022-08-23T04:23:46;5.07;;;4.10;;
36315;SDS011;22343;50.820;2.666;2022-08-23T04:26:12;6.75;;;3.80;;
36315;SDS011;22343;50.820;2.666;2022-08-23T04:28:39;6.78;;;4.20;;
36315;SDS011;22343;50.820;2.666;2022-08-23T04:31:05;4.50;;;3.85;;
36315;SDS011;22343;50.820;2.666;2022-08-23T04:33:31;5.85;;;4.30;;
36315;SDS011;22343;50.820;2.666;2022-08-23T04:35:59;5.55;;;4.25;;
36315;SDS011;22343;50.820;2.666;2022-08-23T04:38:26;6.18;;;4.50;;
36315;SDS011;22343;50.820;2.666;2022-08-23T04:40:52;6.03;;;4.68;;
36315;SDS011;22343;50.820;2.666;2022-08-23T04:43:38;5.65;;;4.57;;
36315;SDS011;22343;50.820;2.666;2022-08-23T04:46:05;5.35;;;4.55;;
36315;SDS011;22343;50.820;2.666;2022-08-23T04:48:31;4.90;;;4.40;;
36315;SDS011;22343;50.820;2.666;2022-08-23T04:50:57;8.25;;;4.70;;
36315;SDS011;22343;50.820;2.666;2022-08-23T04:53:24;7.40;;;5.03;;
36315;SDS011;22343;50.820;2.666;2022-08-23T04:55:50;5.28;;;4.75;;
36315;SDS011;22343;50.820;2.666;2022-08-23T04:58:17;7.88;;;4.40;;
36315;SDS011;22343;50.820;2.666;2022-08-23T05:00:43;7.03;;;4.78;;
36315;SDS011;22343;50.820;2.666;2022-08-23T05:03:09;5.50;;;3.90;;
36315;SDS011;22343;50.820;2.666;2022-08-23T05:05:35;6.10;;;4.30;;
36315;SDS011;22343;50.820;2.666;2022-08-23T05:08:02;6.18;;;4.13;;
36315;SDS011;22343;50.820;2.666;2022-08-23T05:10:28;5.25;;;3.90;;
36315;SDS011;22343;50.820;2.666;2022-08-23T05:12:55;6.13;;;4.28;;
36315;SDS011;22343;50.820;2.666;2022-08-23T05:15:21;4.65;;;4.10;;
36315;SDS011;22343;50.820;2.666;2022-08-23T05:17:47;8.05;;;4.55;;
36315;SDS011;22343;50.820;2.666;2022-08-23T05:20:13;5.93;;;3.95;;
36315;SDS011;22343;50.820;2.666;2022-08-23T05:22:40;6.65;;;4.53;;
36315;SDS011;22343;50.820;2.666;2022-08-23T05:25:07;6.70;;;4.15;;
36315;SDS011;22343;50.820;2.666;2022-08-23T05:27:33;6.13;;;4.10;;
36315;SDS011;22343;50.820;2.666;2022-08-23T05:30:00;5.03;;;4.07;;
36315;SDS011;22343;50.820;2.666;2022-08-23T05:32:26;5.85;;;4.30;;
36315;SDS011;22343;50.820;2.666;2022-08-23T05:34:52;7.68;;;4.57;;
36315;SDS011;22343;50.820;2.666;2022-08-23T05:37:18;5.30;;;4.30;;
36315;SDS011;22343;50.820;2.666;2022-08-23T05:39:44;22.35;;;5.13;;
36315;SDS011;22343;50.820;2.666;2022-08-23T05:42:12;6.07;;;4.22;;
36315;SDS011;22343;50.820;2.666;2022-08-23T05:44:39;5.75;;;4.40;;
36315;SDS011;22343;50.820;2.666;2022-08-23T05:47:06;6.65;;;4.65;;
36315;SDS011;22343;50.820;2.666;2022-08-23T05:49:34;4.60;;;3.72;;
36315;SDS011;22343;50.820;2.666;2022-08-23T05:52:03;6.97;;;3.97;;
36315;SDS011;22343;50.820;2.666;2022-08-23T05:54:30;6.03;;;4.00;;
36315;SDS011;22343;50.820;2.666;2022-08-23T05:56:57;5.93;;;4.18;;
36315;SDS011;22343;50.820;2.666;2022-08-23T05:59:23;4.70;;;4.03;;
36315;SDS011;22343;50.820;2.666;2022-08-23T06:01:49;7.10;;;4.22;;
36315;SDS011;22343;50.820;2.666;2022-08-23T06:04:15;5.15;;;4.22;;
36315;SDS011;22343;50.820;2.666;2022-08-23T06:06:41;6.30;;;4.53;;
36315;SDS011;22343;50.820;2.666;2022-08-23T06:09:12;6.57;;;4.15;;
36315;SDS011;22343;50.820;2.666;2022-08-23T06:11:41;5.68;;;4.50;;
36315;SDS011;22343;50.820;2.666;2022-08-23T06:14:09;5.80;;;4.35;;
36315;SDS011;22343;50.820;2.666;2022-08-23T06:16:36;5.30;;;4.45;;
36315;SDS011;22343;50.820;2.666;2022-08-23T06:19:07;5.60;;;4.35;;
36315;SDS011;22343;50.820;2.666;2022-08-23T06:21:34;5.57;;;4.78;;
36315;SDS011;22343;50.820;2.666;2022-08-23T06:24:01;6.20;;;4.72;;
36315;SDS011;22343;50.820;2.666;2022-08-23T06:26:31;5.03;;;4.63;;
36315;SDS011;22343;50.820;2.666;2022-08-23T06:29:00;7.88;;;5.15;;
36315;SDS011;22343;50.820;2.666;2022-08-23T06:31:31;6.20;;;4.95;;
36315;SDS011;22343;50.820;2.666;2022-08-23T06:34:15;7.10;;;5.32;;
36315;SDS011;22343;50.820;2.666;2022-08-23T06:36:42;6.70;;;5.55;;
36315;SDS011;22343;50.820;2.666;2022-08-23T06:39:09;6.05;;;4.82;;
36315;SDS011;22343;50.820;2.666;2022-08-23T06:41:36;5.30;;;4.72;;
36315;SDS011;22343;50.820;2.666;2022-08-23T06:44:02;6.47;;;5.38;;
36315;SDS011;22343;50.820;2.666;2022-08-23T06:46:29;7.85;;;5.78;;
36315;SDS011;22343;50.820;2.666;2022-08-23T06:48:55;7.60;;;5.60;;
36315;SDS011;22343;50.820;2.666;2022-08-23T06:51:24;7.97;;;6.18;;
36315;SDS011;22343;50.820;2.666;2022-08-23T06:53:54;6.30;;;5.70;;
36315;SDS011;22343;50.820;2.666;2022-08-23T06:56:23;8.27;;;6.63;;
36315;SDS011;22343;50.820;2.666;2022-08-23T06:58:50;8.15;;;7.05;;
36315;SDS011;22343;50.820;2.666;2022-08-23T07:03:42;7.40;;;6.60;;
36315;SDS011;22343;50.820;2.666;2022-08-23T07:06:08;7.70;;;6.90;;
36315;SDS011;22343;50.820;2.666;2022-08-23T07:08:34;7.82;;;6.65;;
36315;SDS011;22343;50.820;2.666;2022-08-23T07:11:00;11.00;;;7.40;;
36315;SDS011;22343;50.820;2.666;2022-08-23T07:13:26;10.93;;;7.50;;
36315;SDS011;22343;50.820;2.666;2022-08-23T07:15:59;8.55;;;7.03;;
36315;SDS011;22343;50.820;2.666;2022-08-23T07:18:25;9.77;;;6.43;;
36315;SDS011;22343;50.820;2.666;2022-08-23T07:20:58;8.75;;;7.00;;
36315;SDS011;22343;50.820;2.666;2022-08-23T07:23:28;7.50;;;5.65;;
36315;SDS011;22343;50.820;2.666;2022-08-23T07:26:01;6.60;;;5.47;;
36315;SDS011;22343;50.820;2.666;2022-08-23T07:28:31;5.93;;;4.63;;
36315;SDS011;22343;50.820;2.666;2022-08-23T07:31:07;5.93;;;5.25;;
36315;SDS011;22343;50.820;2.666;2022-08-23T07:33:35;5.60;;;4.97;;
36315;SDS011;22343;50.820;2.666;2022-08-23T07:36:03;7.63;;;6.20;;
36315;SDS011;22343;50.820;2.666;2022-08-23T07:38:30;5.95;;;5.35;;
36315;SDS011;22343;50.820;2.666;2022-08-23T07:40:57;5.25;;;4.68;;
36315;SDS011;22343;50.820;2.666;2022-08-23T07:43:23;5.53;;;4.25;;
36315;SDS011;22343;50.820;2.666;2022-08-23T07:45:49;4.63;;;3.78;;
36315;SDS011;22343;50.820;2.666;2022-08-23T07:48:15;4.18;;;3.67;;
36315;SDS011;22343;50.820;2.666;2022-08-23T07:50:41;5.10;;;4.40;;
36315;SDS011;22343;50.820;2.666;2022-08-23T07:53:07;4.15;;;3.75;;
36315;SDS011;22343;50.820;2.666;2022-08-23T07:55:33;4.80;;;3.80;;
36315;SDS011;22343;50.820;2.666;2022-08-23T07:57:59;4.53;;;4.13;;
36315;SDS011;22343;50.820;2.666;2022-08-23T08:00:26;5.50;;;4.40;;
36315;SDS011;22343;50.820;2.666;2022-08-23T08:02:52;5.53;;;4.60;;
36315;SDS011;22343;50.820;2.666;2022-08-23T08:05:18;5.30;;;4.22;;
36315;SDS011;22343;50.820;2.666;2022-08-23T08:07:44;5.18;;;4.68;;
36315;SDS011;22343;50.820;2.666;2022-08-23T08:10:10;7.57;;;5.25;;
36315;SDS011;22343;50.820;2.666;2022-08-23T08:12:36;4.38;;;3.88;;
36315;SDS011;22343;50.820;2.666;2022-08-23T08:15:03;5.30;;;4.00;;
36315;SDS011;22343;50.820;2.666;2022-08-23T08:17:29;5.53;;;3.50;;
36315;SDS011;22343;50.820;2.666;2022-08-23T08:19:55;4.75;;;3.67;;
36315;SDS011;22343;50.820;2.666;2022-08-23T08:22:21;4.88;;;3.72;;
36315;SDS011;22343;50.820;2.666;2022-08-23T08:24:47;3.90;;;3.33;;
36315;SDS011;22343;50.820;2.666;2022-08-23T08:27:13;3.47;;;3.17;;
36315;SDS011;22343;50.820;2.666;2022-08-23T08:29:39;3.47;;;2.97;;
36315;SDS011;22343;50.820;2.666;2022-08-23T08:32:08;2.90;;;2.47;;
36315;SDS011;22343;50.820;2.666;2022-08-23T08:34:34;2.95;;;2.65;;
36315;SDS011;22343;50.820;2.666;2022-08-23T08:37:01;2.50;;;2.20;;
36315;SDS011;22343;50.820;2.666;2022-08-23T08:39:29;3.38;;;2.20;;
36315;SDS011;22343;50.820;2.666;2022-08-23T08:45:01;2.20;;;2.00;;
36315;SDS011;22343;50.820;2.666;2022-08-23T08:50:31;6.10;;;2.20;;
36315;SDS011;22343;50.820;2.666;2022-08-23T08:55:35;2.92;;;2.63;;
36315;SDS011;22343;50.820;2.666;2022-08-23T08:58:20;2.85;;;1.55;;
36315;SDS011;22343;50.820;2.666;2022-08-23T09:00:53;2.08;;;1.45;;
36315;SDS011;22343;50.820;2.666;2022-08-23T09:03:20;1.65;;;1.30;;
36315;SDS011;22343;50.820;2.666;2022-08-23T09:05:51;1.52;;;1.42;;
36315;SDS011;22343;50.820;2.666;2022-08-23T09:11:12;2.45;;;0.93;;
36315;SDS011;22343;50.820;2.666;2022-08-23T09:14:03;2.55;;;1.40;;
36315;SDS011;22343;50.820;2.666;2022-08-23T09:19:18;2.00;;;1.52;;
36315;SDS011;22343;50.820;2.666;2022-08-23T09:21:47;1.88;;;1.42;;
36315;SDS011;22343;50.820;2.666;2022-08-23T09:24:20;1.90;;;1.45;;
36315;SDS011;22343;50.820;2.666;2022-08-23T09:26:46;1.40;;;1.30;;
36315;SDS011;22343;50.820;2.666;2022-08-23T09:29:23;1.60;;;1.33;;
36315;SDS011;22343;50.820;2.666;2022-08-23T09:31:51;1.75;;;1.65;;
36315;SDS011;22343;50.820;2.666;2022-08-23T09:39:36;2.25;;;1.83;;
36315;SDS011;22343;50.820;2.666;2022-08-23T09:42:07;1.90;;;1.80;;
36315;SDS011;22343;50.820;2.666;2022-08-23T09:44:37;2.10;;;1.90;;
36315;SDS011;22343;50.820;2.666;2022-08-23T09:47:13;2.80;;;2.10;;
36315;SDS011;22343;50.820;2.666;2022-08-23T09:49:42;2.38;;;2.00;;
36315;SDS011;22343;50.820;2.666;2022-08-23T09:54:37;3.00;;;2.50;;
36315;SDS011;22343;50.820;2.666;2022-08-23T09:57:06;2.70;;;2.30;;
36315;SDS011;22343;50.820;2.666;2022-08-23T09:59:42;2.63;;;2.42;;
36315;SDS011;22343;50.820;2.666;2022-08-23T10:02:29;2.83;;;2.63;;
36315;SDS011;22343;50.820;2.666;2022-08-23T10:04:59;3.65;;;2.83;;
36315;SDS011;22343;50.820;2.666;2022-08-23T10:13:11;2.28;;;2.00;;
36315;SDS011;22343;50.820;2.666;2022-08-23T10:18:38;2.90;;;2.00;;
36315;SDS011;22343;50.820;2.666;2022-08-23T10:30:01;1.70;;;1.50;;
36315;SDS011;22343;50.820;2.666;2022-08-23T10:35:10;1.70;;;1.60;;
36315;SDS011;22343;50.820;2.666;2022-08-23T10:37:49;2.28;;;1.70;;
36315;SDS011;22343;50.820;2.666;2022-08-23T10:40:29;1.60;;;1.50;;
36315;SDS011;22343;50.820;2.666;2022-08-23T10:43:03;1.48;;;1.38;;
36315;SDS011;22343;50.820;2.666;2022-08-23T10:45:52;1.42;;;1.30;;
36315;SDS011;22343;50.820;2.666;2022-08-23T10:50:55;1.42;;;1.33;;
36315;SDS011;22343;50.820;2.666;2022-08-23T10:53:44;3.25;;;1.38;;
36315;SDS011;22343;50.820;2.666;2022-08-23T10:56:16;2.28;;;1.25;;
36315;SDS011;22343;50.820;2.666;2022-08-23T10:58:47;1.13;;;1.10;;
36315;SDS011;22343;50.820;2.666;2022-08-23T11:01:21;1.70;;;1.42;;
36315;SDS011;22343;50.820;2.666;2022-08-23T11:06:46;0.90;;;0.90;;
36315;SDS011;22343;50.820;2.666;2022-08-23T11:11:47;2.35;;;0.95;;
36315;SDS011;22343;50.820;2.666;2022-08-23T11:17:28;1.45;;;0.90;;
36315;SDS011;22343;50.820;2.666;2022-08-23T11:19:56;1.33;;;1.20;;
36315;SDS011;22343;50.820;2.666;2022-08-23T11:24:56;1.40;;;1.00;;
36315;SDS011;22343;50.820;2.666;2022-08-23T11:27:42;1.20;;;1.10;;
36315;SDS011;22343;50.820;2.666;2022-08-23T11:33:12;1.10;;;1.00;;
36315;SDS011;22343;50.820;2.666;2022-08-23T11:41:30;1.30;;;1.20;;
36315;SDS011;22343;50.820;2.666;2022-08-23T11:51:57;1.10;;;1.00;;
36315;SDS011;22343;50.820;2.666;2022-08-23T12:00:03;0.77;;;0.75;;
36315;SDS011;22343;50.820;2.666;2022-08-23T12:03:06;2.50;;;1.15;;
36315;SDS011;22343;50.820;2.666;2022-08-23T12:05:39;1.80;;;1.13;;
36315;SDS011;22343;50.820;2.666;2022-08-23T12:13:28;4.63;;;1.42;;
36315;SDS011;22343;50.820;2.666;2022-08-23T12:18:51;1.20;;;1.10;;
36315;SDS011;22343;50.820;2.666;2022-08-23T12:27:24;1.83;;;1.23;;
36315;SDS011;22343;50.820;2.666;2022-08-23T12:30:02;2.35;;;1.10;;
36315;SDS011;22343;50.820;2.666;2022-08-23T12:38:57;1.38;;;1.05;;
36315;SDS011;22343;50.820;2.666;2022-08-23T12:40:56;1.52;;;1.10;;
36315;SDS011;22343;50.820;2.666;2022-08-23T12:43:26;1.95;;;1.10;;
36315;SDS011;22343;50.820;2.666;2022-08-23T12:45:58;2.45;;;1.20;;
36315;SDS011;22343;50.820;2.666;2022-08-23T12:48:26;1.23;;;1.00;;
36315;SDS011;22343;50.820;2.666;2022-08-23T12:53:36;0.90;;;0.80;;
36315;SDS011;22343;50.820;2.666;2022-08-23T12:56:13;1.00;;;1.00;;
36315;SDS011;22343;50.820;2.666;2022-08-23T12:58:45;11.25;;;2.03;;
36315;SDS011;22343;50.820;2.666;2022-08-23T13:01:18;4.90;;;3.00;;
36315;SDS011;22343;50.820;2.666;2022-08-23T13:03:46;2.53;;;1.80;;
36315;SDS011;22343;50.820;2.666;2022-08-23T13:06:18;2.95;;;1.00;;
36315;SDS011;22343;50.820;2.666;2022-08-23T13:08:52;3.35;;;1.30;;
36315;SDS011;22343;50.820;2.666;2022-08-23T13:11:21;1.10;;;1.00;;
36315;SDS011;22343;50.820;2.666;2022-08-23T13:13:56;1.05;;;0.95;;
36315;SDS011;22343;50.820;2.666;2022-08-23T13:16:31;2.47;;;1.48;;
36315;SDS011;22343;50.820;2.666;2022-08-23T13:22:07;1.00;;;0.90;;
36315;SDS011;22343;50.820;2.666;2022-08-23T13:24:43;1.83;;;0.80;;
36315;SDS011;22343;50.820;2.666;2022-08-23T13:27:18;2.03;;;0.90;;
36315;SDS011;22343;50.820;2.666;2022-08-23T13:29:51;0.82;;;0.80;;
36315;SDS011;22343;50.820;2.666;2022-08-23T13:37:48;1.92;;;1.10;;
36315;SDS011;22343;50.820;2.666;2022-08-23T13:40:21;1.27;;;1.00;;
36315;SDS011;22343;50.820;2.666;2022-08-23T13:42:51;1.48;;;1.00;;
36315;SDS011;22343;50.820;2.666;2022-08-23T13:45:32;5.43;;;2.28;;
36315;SDS011;22343;50.820;2.666;2022-08-23T13:50:46;1.80;;;1.00;;
36315;SDS011;22343;50.820;2.666;2022-08-23T13:53:15;0.82;;;0.70;;
36315;SDS011;22343;50.820;2.666;2022-08-23T13:55:46;1.92;;;0.98;;
36315;SDS011;22343;50.820;2.666;2022-08-23T13:58:29;1.15;;;0.95;;
36315;SDS011;22343;50.820;2.666;2022-08-23T14:00:57;0.75;;;0.73;;
36315;SDS011;22343;50.820;2.666;2022-08-23T14:03:24;0.88;;;0.88;;
36315;SDS011;22343;50.820;2.666;2022-08-23T14:05:53;2.15;;;1.00;;
36315;SDS011;22343;50.820;2.666;2022-08-23T14:08:20;0.82;;;0.82;;
36315;SDS011;22343;50.820;2.666;2022-08-23T14:10:48;1.75;;;1.05;;
36315;SDS011;22343;50.820;2.666;2022-08-23T14:13:15;1.02;;;0.80;;
36315;SDS011;22343;50.820;2.666;2022-08-23T14:15:43;1.00;;;0.70;;
36315;SDS011;22343;50.820;2.666;2022-08-23T14:18:10;1.83;;;1.00;;
36315;SDS011;22343;50.820;2.666;2022-08-23T14:20:37;0.90;;;0.90;;
36315;SDS011;22343;50.820;2.666;2022-08-23T14:23:05;0.90;;;0.90;;
36315;SDS011;22343;50.820;2.666;2022-08-23T14:25:32;1.70;;;0.70;;
36315;SDS011;22343;50.820;2.666;2022-08-23T14:27:58;0.88;;;0.88;;
36315;SDS011;22343;50.820;2.666;2022-08-23T14:30:29;1.13;;;0.90;;
36315;SDS011;22343;50.820;2.666;2022-08-23T14:32:57;1.48;;;1.00;;
36315;SDS011;22343;50.820;2.666;2022-08-23T14:35:25;1.20;;;1.00;;
36315;SDS011;22343;50.820;2.666;2022-08-23T14:37:52;0.90;;;0.90;;
36315;SDS011;22343;50.820;2.666;2022-08-23T14:40:20;5.20;;;2.10;;
36315;SDS011;22343;50.820;2.666;2022-08-23T14:42:47;1.00;;;0.88;;
36315;SDS011;22343;50.820;2.666;2022-08-23T14:45:15;0.80;;;0.80;;
36315;SDS011;22343;50.820;2.666;2022-08-23T14:47:44;1.30;;;0.80;;
36315;SDS011;22343;50.820;2.666;2022-08-23T14:50:12;1.70;;;0.80;;
36315;SDS011;22343;50.820;2.666;2022-08-23T14:52:41;0.77;;;0.75;;
36315;SDS011;22343;50.820;2.666;2022-08-23T14:55:09;0.82;;;0.82;;
36315;SDS011;22343;50.820;2.666;2022-08-23T14:57:36;0.80;;;0.70;;
36315;SDS011;22343;50.820;2.666;2022-08-23T15:00:04;1.33;;;0.90;;
36315;SDS011;22343;50.820;2.666;2022-08-23T15:02:32;1.42;;;1.05;;
36315;SDS011;22343;50.820;2.666;2022-08-23T15:05:01;0.70;;;0.65;;
36315;SDS011;22343;50.820;2.666;2022-08-23T15:07:27;0.60;;;0.60;;
36315;SDS011;22343;50.820;2.666;2022-08-23T15:09:53;0.68;;;0.68;;
36315;SDS011;22343;50.820;2.666;2022-08-23T15:12:20;1.23;;;0.95;;
36315;SDS011;22343;50.820;2.666;2022-08-23T15:14:46;2.38;;;1.00;;
36315;SDS011;22343;50.820;2.666;2022-08-23T15:17:13;1.10;;;1.00;;
36315;SDS011;22343;50.820;2.666;2022-08-23T15:19:39;1.10;;;1.00;;
36315;SDS011;22343;50.820;2.666;2022-08-23T15:22:05;1.50;;;0.80;;
36315;SDS011;22343;50.820;2.666;2022-08-23T15:24:31;0.98;;;0.88;;
36315;SDS011;22343;50.820;2.666;2022-08-23T15:26:57;1.13;;;1.02;;
36315;SDS011;22343;50.820;2.666;2022-08-23T15:29:26;0.88;;;0.82;;
36315;SDS011;22343;50.820;2.666;2022-08-23T15:31:52;0.88;;;0.80;;
36315;SDS011;22343;50.820;2.666;2022-08-23T15:34:20;0.73;;;0.73;;
36315;SDS011;22343;50.820;2.666;2022-08-23T15:36:47;2.53;;;0.60;;
36315;SDS011;22343;50.820;2.666;2022-08-23T15:39:13;1.10;;;0.70;;
36315;SDS011;22343;50.820;2.666;2022-08-23T15:41:39;1.73;;;1.52;;
36315;SDS011;22343;50.820;2.666;2022-08-23T15:44:05;3.05;;;1.25;;
36315;SDS011;22343;50.820;2.666;2022-08-23T15:46:31;1.17;;;0.95;;
36315;SDS011;22343;50.820;2.666;2022-08-23T15:49:03;1.00;;;0.77;;
36315;SDS011;22343;50.820;2.666;2022-08-23T15:51:37;0.90;;;0.90;;
36315;SDS011;22343;50.820;2.666;2022-08-23T15:54:04;1.30;;;1.20;;
36315;SDS011;22343;50.820;2.666;2022-08-23T15:56:53;1.80;;;0.90;;
36315;SDS011;22343;50.820;2.666;2022-08-23T15:59:19;3.45;;;1.70;;
36315;SDS011;22343;50.820;2.666;2022-08-23T16:01:47;5.97;;;3.42;;
36315;SDS011;22343;50.820;2.666;2022-08-23T16:04:13;2.72;;;0.90;;
36315;SDS011;22343;50.820;2.666;2022-08-23T16:06:41;2.10;;;1.20;;
36315;SDS011;22343;50.820;2.666;2022-08-23T16:09:10;1.00;;;0.90;;
36315;SDS011;22343;50.820;2.666;2022-08-23T16:11:39;2.63;;;2.00;;
36315;SDS011;22343;50.820;2.666;2022-08-23T16:14:05;1.95;;;1.38;;
36315;SDS011;22343;50.820;2.666;2022-08-23T16:16:33;1.80;;;1.27;;
36315;SDS011;22343;50.820;2.666;2022-08-23T16:19:03;0.80;;;0.80;;
36315;SDS011;22343;50.820;2.666;2022-08-23T16:21:31;1.92;;;1.05;;
36315;SDS011;22343;50.820;2.666;2022-08-23T16:23:58;1.17;;;1.08;;
36315;SDS011;22343;50.820;2.666;2022-08-23T16:26:26;2.25;;;0.88;;
36315;SDS011;22343;50.820;2.666;2022-08-23T16:28:56;1.00;;;0.90;;
36315;SDS011;22343;50.820;2.666;2022-08-23T16:31:24;0.95;;;0.80;;
36315;SDS011;22343;50.820;2.666;2022-08-23T16:33:55;0.80;;;0.73;;
36315;SDS011;22343;50.820;2.666;2022-08-23T16:36:23;1.60;;;0.85;;
36315;SDS011;22343;50.820;2.666;2022-08-23T16:38:51;2.13;;;1.67;;
36315;SDS011;22343;50.820;2.666;2022-08-23T16:41:22;1.58;;;1.30;;
36315;SDS011;22343;50.820;2.666;2022-08-23T16:43:49;6.80;;;5.80;;
36315;SDS011;22343;50.820;2.666;2022-08-23T16:46:17;1.60;;;1.50;;
36315;SDS011;22343;50.820;2.666;2022-08-23T16:48:46;1.27;;;0.82;;
36315;SDS011;22343;50.820;2.666;2022-08-23T16:51:12;0.98;;;0.85;;
36315;SDS011;22343;50.820;2.666;2022-08-23T16:53:39;1.08;;;0.98;;
36315;SDS011;22343;50.820;2.666;2022-08-23T16:56:07;1.10;;;1.00;;
36315;SDS011;22343;50.820;2.666;2022-08-23T16:58:34;0.95;;;0.80;;
36315;SDS011;22343;50.820;2.666;2022-08-23T17:01:03;1.95;;;0.90;;
36315;SDS011;22343;50.820;2.666;2022-08-23T17:03:29;1.70;;;0.82;;
36315;SDS011;22343;50.820;2.666;2022-08-23T17:05:57;3.35;;;1.25;;